Time;durP1;ratioP1;P1;durP2;ratioP2;P2;SDS_P1;SDS_P2;PMS_P1;PMS_P2;Temp;Humidity;BMP_temperature;BMP_pressure;BME280_temperature;BME280_humidity;BME280_pressure;Samples;Min_cycle;Max_cycle;Signal;HPM_P1;HPM_P2
2023/01/03 00:01:46;;;;;;;19.08;14.68;;;12.40;1.00;;;;;;5037578;28;20028;-62
2023/01/03 00:04:12;;;;;;;19.23;14.13;;;12.40;1.00;;;;;;5040448;28;20037;-62
2023/01/03 00:06:41;;;;;;;17.80;13.70;;;12.40;1.00;;;;;;5038234;28;20021;-62
2023/01/03 00:09:08;;;;;;;18.00;12.68;;;12.40;1.00;;;;;;5029508;28;20048;-62
2023/01/03 00:14:22;;;;;;;18.02;13.77;;;12.50;1.00;;;;;;5031083;28;20087;-61
2023/01/03 00:16:53;;;;;;;19.55;15.68;;;12.50;1.00;;;;;;5033186;28;20579;-61
2023/01/03 00:19:21;;;;;;;18.55;15.00;;;12.50;1.00;;;;;;5029335;28;20052;-61
2023/01/03 00:21:46;;;;;;;18.73;14.55;;;12.50;1.00;;;;;;5031740;28;20048;-62
2023/01/03 00:24:12;;;;;;;17.25;14.18;;;12.60;1.00;;;;;;5031186;28;20049;-61
2023/01/03 00:26:39;;;;;;;19.67;15.30;;;12.50;1.00;;;;;;5032989;28;20064;-61
2023/01/03 00:29:05;;;;;;;17.40;13.40;;;12.60;1.00;;;;;;5031328;28;20099;-61
2023/01/03 00:31:31;;;;;;;16.42;13.80;;;12.60;1.00;;;;;;5029514;28;20048;-61
2023/01/03 00:33:57;;;;;;;24.08;14.95;;;12.60;1.00;;;;;;5029280;28;20100;-61
2023/01/03 00:36:22;;;;;;;20.13;14.55;;;12.60;1.00;;;;;;5028907;28;20030;-61
2023/01/03 00:45:52;;;;;;;23.40;16.25;;;12.60;1.00;;;;;;4997329;28;20061;-60
2023/01/03 00:48:18;;;;;;;18.67;14.57;;;12.60;1.00;;;;;;5028840;28;20112;-62
2023/01/03 00:50:53;;;;;;;22.05;15.82;;;12.60;1.00;;;;;;5031965;28;20018;-62
2023/01/03 00:53:23;;;;;;;23.73;16.45;;;12.60;1.00;;;;;;5032246;28;20036;-61
2023/01/03 00:55:49;;;;;;;21.00;15.88;;;12.60;1.00;;;;;;5019358;28;20028;-61
2023/01/03 00:58:15;;;;;;;21.55;15.73;;;12.40;1.00;;;;;;5032286;28;20131;-61
2023/01/03 01:00:40;;;;;;;25.73;17.45;;;12.50;1.00;;;;;;5019666;28;20022;-62
2023/01/03 01:03:06;;;;;;;20.23;15.93;;;12.50;1.00;;;;;;5030839;28;20083;-61
2023/01/03 01:05:32;;;;;;;20.55;15.65;;;12.50;1.00;;;;;;5020503;28;20049;-61
2023/01/03 01:07:58;;;;;;;19.50;15.43;;;12.60;1.00;;;;;;5031969;28;20079;-61
2023/01/03 01:11:00;;;;;;;22.70;16.35;;;12.60;1.00;;;;;;5019445;28;20030;-62
2023/01/03 01:13:30;;;;;;;25.92;16.23;;;12.60;1.00;;;;;;5028926;28;20025;-61
2023/01/03 01:16:10;;;;;;;22.92;16.67;;;12.50;1.00;;;;;;5031223;28;20029;-61
2023/01/03 01:18:37;;;;;;;23.83;16.73;;;12.50;1.00;;;;;;5030032;28;20135;-62
2023/01/03 01:21:07;;;;;;;22.13;16.60;;;12.50;1.00;;;;;;5031473;28;20217;-61
2023/01/03 01:23:37;;;;;;;20.60;16.65;;;12.50;1.00;;;;;;5031784;28;20029;-61
2023/01/03 01:26:04;;;;;;;20.23;15.60;;;12.40;1.00;;;;;;5029739;28;20083;-61
2023/01/03 01:28:31;;;;;;;22.42;15.77;;;12.50;1.00;;;;;;5031917;28;20036;-61
2023/01/03 01:31:01;;;;;;;19.17;14.98;;;12.40;1.00;;;;;;5029216;28;20064;-61
2023/01/03 01:33:27;;;;;;;23.73;16.17;;;12.50;1.00;;;;;;5031550;28;20025;-62
2023/01/03 01:35:53;;;;;;;20.88;15.48;;;12.40;1.00;;;;;;5029986;28;20029;-62
2023/01/03 01:38:19;;;;;;;19.20;15.25;;;12.50;1.00;;;;;;5031701;28;20498;-61
2023/01/03 01:40:45;;;;;;;20.38;14.73;;;12.50;1.00;;;;;;5025935;28;20029;-61
2023/01/03 01:46:24;;;;;;;20.70;15.35;;;12.50;1.00;;;;;;5027809;28;20387;-61
2023/01/03 01:48:55;;;;;;;19.55;15.80;;;12.50;1.00;;;;;;5031588;28;20057;-62
2023/01/03 01:51:23;;;;;;;17.35;14.00;;;12.50;1.00;;;;;;5031925;28;20025;-61
2023/01/03 01:53:51;;;;;;;21.98;16.33;;;12.50;1.00;;;;;;5031673;28;20033;-61
2023/01/03 01:56:27;;;;;;;16.63;13.70;;;12.50;1.00;;;;;;5031448;28;20045;-61
2023/01/03 01:58:54;;;;;;;20.73;15.35;;;12.50;1.00;;;;;;5029223;28;20037;-62
2023/01/03 02:01:21;;;;;;;17.98;14.90;;;12.50;1.00;;;;;;5046273;28;20045;-61
2023/01/03 02:03:55;;;;;;;22.20;16.05;;;12.50;1.00;;;;;;5029253;28;20049;-61
2023/01/03 02:06:30;;;;;;;16.35;12.75;;;12.50;1.00;;;;;;5045513;28;20020;-61
2023/01/03 02:08:56;;;;;;;18.08;14.15;;;12.50;1.00;;;;;;5027800;28;20395;-61
2023/01/03 02:13:04;;;;;;;19.05;15.32;;;12.50;1.00;;;;;;5029426;28;20032;-62
2023/01/03 02:15:02;;;;;;;18.85;15.02;;;12.60;1.00;;;;;;5029570;28;20171;-61
2023/01/03 02:17:39;;;;;;;15.40;12.85;;;12.60;1.00;;;;;;5020549;28;20102;-61
2023/01/03 02:20:17;;;;;;;16.05;13.15;;;12.60;1.00;;;;;;5030862;28;20030;-61
2023/01/03 02:23:01;;;;;;;13.48;12.07;;;12.60;1.00;;;;;;5031479;28;20415;-61
2023/01/03 02:25:51;;;;;;;19.83;14.35;;;12.60;1.00;;;;;;5030925;28;20033;-62
2023/01/03 02:28:55;;;;;;;17.00;13.52;;;12.60;1.00;;;;;;5019326;28;20379;-62
2023/01/03 02:31:44;;;;;;;16.17;13.50;;;12.60;1.00;;;;;;5030018;28;20030;-61
2023/01/03 02:34:33;;;;;;;17.90;13.82;;;12.60;1.00;;;;;;5029391;28;20480;-62
2023/01/03 02:37:07;;;;;;;16.52;13.73;;;12.60;1.00;;;;;;5034875;28;20418;-62
2023/01/03 02:39:58;;;;;;;16.50;13.50;;;12.60;1.00;;;;;;5027462;28;20057;-61
2023/01/03 02:45:45;;;;;;;15.38;13.35;;;12.60;1.00;;;;;;5032992;28;20536;-62
2023/01/03 02:51:53;;;;;;;19.60;14.55;;;12.60;1.00;;;;;;5018481;28;20129;-61
2023/01/03 02:54:26;;;;;;;14.85;12.52;;;12.60;1.00;;;;;;5020942;28;20022;-61
2023/01/03 02:57:07;;;;;;;15.20;12.32;;;12.60;1.00;;;;;;5029511;28;20037;-61
2023/01/03 02:59:46;;;;;;;12.75;11.00;;;12.60;1.00;;;;;;5029910;28;20029;-61
2023/01/03 03:02:14;;;;;;;13.68;11.18;;;12.60;1.00;;;;;;5033764;28;20033;-61
2023/01/03 03:04:43;;;;;;;13.68;12.27;;;12.60;1.00;;;;;;5031225;28;20108;-61
2023/01/03 03:07:21;;;;;;;14.27;12.38;;;12.60;1.00;;;;;;5032032;28;20025;-61
2023/01/03 03:15:22;;;;;;;17.08;12.45;;;12.50;1.00;;;;;;5033430;28;20478;-62
2023/01/03 03:18:00;;;;;;;16.65;12.68;;;12.50;1.00;;;;;;5033709;28;20030;-62
2023/01/03 03:26:18;;;;;;;14.65;11.05;;;12.60;1.00;;;;;;5032367;28;20045;-61
2023/01/03 03:28:49;;;;;;;14.38;11.77;;;12.60;1.00;;;;;;5032458;28;20382;-61
2023/01/03 03:31:17;;;;;;;13.85;11.77;;;12.60;1.00;;;;;;5032599;28;20120;-62
2023/01/03 03:33:49;;;;;;;15.05;11.85;;;12.60;1.00;;;;;;5033169;28;20114;-62
2023/01/03 03:36:43;;;;;;;14.50;11.48;;;12.60;1.00;;;;;;5034010;28;20034;-62
2023/01/03 03:44:59;;;;;;;12.90;10.93;;;12.60;1.00;;;;;;5032125;28;20025;-61
2023/01/03 03:44:59;;;;;;;14.63;12.32;;;12.60;1.00;;;;;;5022978;28;20100;-62
2023/01/03 03:47:41;;;;;;;15.23;12.80;;;12.60;1.00;;;;;;5033095;28;20087;-62
2023/01/03 03:50:10;;;;;;;13.63;11.27;;;12.60;1.00;;;;;;5022766;28;20041;-61
2023/01/03 03:52:37;;;;;;;12.20;10.18;;;12.60;1.00;;;;;;5033482;28;20026;-61
2023/01/03 03:55:12;;;;;;;15.50;11.77;;;12.60;1.00;;;;;;5031596;28;20041;-61
2023/01/03 03:58:01;;;;;;;16.27;12.82;;;12.70;1.00;;;;;;5033777;28;20021;-61
2023/01/03 04:00:31;;;;;;;13.30;11.57;;;12.60;1.00;;;;;;5031536;28;20022;-61
2023/01/03 04:02:59;;;;;;;13.23;11.57;;;12.70;1.00;;;;;;5031968;28;20056;-61
2023/01/03 04:05:30;;;;;;;16.00;13.20;;;12.70;1.00;;;;;;5028692;28;20053;-62
2023/01/03 04:07:56;;;;;;;12.93;10.70;;;12.70;1.00;;;;;;5032173;28;20104;-62
2023/01/03 04:10:22;;;;;;;15.93;11.70;;;12.70;1.00;;;;;;5027315;28;20128;-61
2023/01/03 04:12:50;;;;;;;12.40;11.13;;;12.70;1.00;;;;;;5032398;28;20419;-62
2023/01/03 04:15:15;;;;;;;12.32;10.80;;;12.70;1.00;;;;;;5024624;28;20029;-61
2023/01/03 04:17:41;;;;;;;10.70;9.45;;;12.70;1.00;;;;;;5032907;28;20029;-62
2023/01/03 04:20:08;;;;;;;13.18;11.18;;;12.70;1.00;;;;;;5031236;28;20049;-62
2023/01/03 04:22:38;;;;;;;14.20;11.05;;;12.60;1.00;;;;;;5032826;28;20029;-61
2023/01/03 04:25:04;;;;;;;12.98;10.57;;;12.60;1.00;;;;;;5029128;28;20194;-62
2023/01/03 04:27:30;;;;;;;18.08;13.75;;;12.60;1.00;;;;;;5031174;28;20089;-62
2023/01/03 04:29:56;;;;;;;14.30;12.13;;;12.60;1.00;;;;;;5029891;28;20037;-62
2023/01/03 04:32:22;;;;;;;14.18;12.18;;;12.60;1.00;;;;;;5031332;28;20026;-61
2023/01/03 04:34:47;;;;;;;16.52;13.65;;;12.60;1.00;;;;;;5030385;28;20506;-61
2023/01/03 04:37:13;;;;;;;17.33;12.55;;;12.60;1.00;;;;;;5032540;28;20127;-62
2023/01/03 04:39:39;;;;;;;15.98;11.30;;;12.60;1.00;;;;;;5032685;28;20559;-62
2023/01/03 04:44:00;;;;;;;18.92;12.88;;;12.60;1.00;;;;;;5032400;28;20057;-62
2023/01/03 04:44:50;;;;;;;19.63;13.35;;;12.60;1.00;;;;;;5027468;28;20373;-61
2023/01/03 04:47:16;;;;;;;16.50;12.95;;;12.60;1.00;;;;;;5027675;28;20120;-61
2023/01/03 04:49:47;;;;;;;16.55;12.88;;;12.60;1.00;;;;;;5030764;28;20476;-61
2023/01/03 04:52:16;;;;;;;18.05;12.43;;;12.50;1.00;;;;;;5031126;28;20116;-62
2023/01/03 04:54:42;;;;;;;18.50;12.73;;;12.50;1.00;;;;;;5028630;28;20063;-62
2023/01/03 04:57:09;;;;;;;20.10;13.45;;;12.60;1.00;;;;;;5029518;28;20025;-61
2023/01/03 04:59:35;;;;;;;16.17;12.82;;;12.60;1.00;;;;;;5030797;28;20061;-61
2023/01/03 05:02:01;;;;;;;24.45;14.45;;;12.60;1.00;;;;;;5029909;28;20014;-62
2023/01/03 05:04:27;;;;;;;18.80;13.25;;;12.50;1.00;;;;;;5027428;28;20029;-62
2023/01/03 05:06:54;;;;;;;16.30;12.63;;;12.50;1.00;;;;;;5030841;28;20032;-62
2023/01/03 05:09:20;;;;;;;20.63;13.98;;;12.50;1.00;;;;;;5031681;28;20018;-62
2023/01/03 05:11:45;;;;;;;17.63;12.95;;;12.50;1.00;;;;;;5032214;28;20087;-62
2023/01/03 05:14:11;;;;;;;15.23;12.32;;;12.50;1.00;;;;;;5031773;28;20057;-62
2023/01/03 05:16:36;;;;;;;17.50;12.45;;;12.60;1.00;;;;;;5032317;28;20026;-62
2023/01/03 05:19:02;;;;;;;15.48;11.88;;;12.50;1.00;;;;;;5030261;28;20041;-62
2023/01/03 05:27:04;;;;;;;14.45;11.70;;;12.60;1.00;;;;;;5031715;28;20108;-62
2023/01/03 05:29:31;;;;;;;14.77;12.18;;;12.50;1.00;;;;;;5021393;28;20022;-62
2023/01/03 05:31:57;;;;;;;13.40;11.75;;;12.50;1.00;;;;;;5031483;28;20100;-62
2023/01/03 05:34:23;;;;;;;12.30;10.82;;;12.50;1.00;;;;;;5013674;28;20067;-62
2023/01/03 05:36:49;;;;;;;13.35;11.68;;;12.40;1.00;;;;;;5031580;28;20040;-62
2023/01/03 05:39:17;;;;;;;12.73;11.40;;;12.50;1.00;;;;;;5031194;28;20105;-62
2023/01/03 05:42:01;;;;;;;14.23;10.88;;;12.50;1.00;;;;;;5031675;28;20033;-62
2023/01/03 05:44:27;;;;;;;12.27;11.00;;;12.50;1.00;;;;;;5023066;28;20038;-62
2023/01/03 05:46:53;;;;;;;11.77;10.40;;;12.40;1.00;;;;;;5031160;28;20128;-62
2023/01/03 05:49:19;;;;;;;9.75;8.75;;;12.50;1.00;;;;;;5020983;28;20104;-62
2023/01/03 05:51:44;;;;;;;10.85;9.27;;;12.50;1.00;;;;;;5030245;28;20039;-62
2023/01/03 05:54:15;;;;;;;13.18;11.77;;;12.50;1.00;;;;;;5020411;28;20526;-62
2023/01/03 05:56:40;;;;;;;11.35;10.23;;;12.50;1.00;;;;;;5031918;28;20029;-62
2023/01/03 05:59:07;;;;;;;11.55;10.35;;;12.50;1.00;;;;;;5020766;28;20388;-62
2023/01/03 06:01:32;;;;;;;13.32;11.27;;;12.50;1.00;;;;;;5031678;28;20021;-62
2023/01/03 06:03:58;;;;;;;14.52;11.93;;;12.50;1.00;;;;;;5031562;28;20578;-62
2023/01/03 06:06:24;;;;;;;11.90;10.63;;;12.50;1.00;;;;;;5031561;28;20029;-62
2023/01/03 06:08:50;;;;;;;13.43;12.13;;;12.50;1.00;;;;;;5033968;28;20419;-62
2023/01/03 06:11:16;;;;;;;11.30;10.20;;;12.50;1.00;;;;;;5035247;28;20065;-62
2023/01/03 06:13:42;;;;;;;11.85;10.65;;;12.50;1.00;;;;;;5035166;28;20017;-62
2023/01/03 06:18:58;;;;;;;11.40;10.20;;;12.50;1.00;;;;;;5033199;28;20040;-62
2023/01/03 06:21:24;;;;;;;10.93;9.52;;;12.50;1.00;;;;;;5029848;28;20127;-62
2023/01/03 06:23:49;;;;;;;12.25;10.40;;;12.50;1.00;;;;;;5029799;28;20032;-62
2023/01/03 06:26:16;;;;;;;12.25;10.95;;;12.50;1.00;;;;;;5033707;28;20132;-62
2023/01/03 06:28:42;;;;;;;13.30;9.57;;;12.50;1.00;;;;;;5034747;28;20041;-62
2023/01/03 06:31:09;;;;;;;10.65;9.57;;;12.40;1.00;;;;;;5034743;28;20371;-62
2023/01/03 06:33:35;;;;;;;10.00;8.98;;;12.40;1.00;;;;;;5026761;28;20030;-62
2023/01/03 06:36:05;;;;;;;9.93;8.93;;;12.40;1.00;;;;;;5033236;28;20116;-60
2023/01/03 06:38:32;;;;;;;9.50;7.72;;;12.40;1.00;;;;;;5026189;28;20026;-61
2023/01/03 06:40:58;;;;;;;8.70;7.80;;;12.40;1.00;;;;;;5034579;28;20455;-60
2023/01/03 06:43:23;;;;;;;9.98;7.80;;;12.30;1.00;;;;;;5030346;28;20053;-60
2023/01/03 06:54:10;;;;;;;7.57;6.47;;;12.20;1.00;;;;;;5033359;28;20091;-62
2023/01/03 06:56:36;;;;;;;7.28;6.55;;;12.30;1.00;;;;;;5033200;28;20025;-61
2023/01/03 06:59:01;;;;;;;8.88;7.00;;;12.20;1.00;;;;;;5032185;28;20026;-62
2023/01/03 07:01:27;;;;;;;9.93;7.88;;;12.30;1.00;;;;;;5034301;28;20159;-62
2023/01/03 07:03:53;;;;;;;8.65;7.38;;;12.30;1.00;;;;;;5030838;28;20068;-61
2023/01/03 07:06:18;;;;;;;8.85;7.95;;;12.30;1.00;;;;;;5033817;28;20063;-61
2023/01/03 07:08:45;;;;;;;8.30;7.40;;;12.40;1.00;;;;;;5034367;28;20112;-61
2023/01/03 07:11:11;;;;;;;10.75;8.82;;;12.30;1.00;;;;;;5033677;28;20029;-61
2023/01/03 07:16:20;;;;;;;8.32;7.18;;;12.20;1.00;;;;;;5029376;28;20443;-62
2023/01/03 07:18:46;;;;;;;9.98;8.00;;;12.10;1.00;;;;;;5030919;28;20037;-61
2023/01/03 07:21:12;;;;;;;16.90;10.00;;;12.10;1.00;;;;;;5032638;28;20030;-61
2023/01/03 07:23:38;;;;;;;9.57;8.15;;;12.10;1.00;;;;;;5033300;28;20034;-61
2023/01/03 07:26:04;;;;;;;11.20;8.13;;;12.10;1.00;;;;;;5033666;28;20037;-62
2023/01/03 07:28:30;;;;;;;11.23;8.40;;;12.10;1.00;;;;;;5033235;28;20376;-61
2023/01/03 07:31:01;;;;;;;11.70;8.73;;;12.10;1.00;;;;;;5030893;28;20064;-61
2023/01/03 07:33:27;;;;;;;13.95;9.75;;;12.10;1.00;;;;;;5032104;28;20053;-62
2023/01/03 07:36:02;;;;;;;15.18;9.60;;;12.10;1.00;;;;;;5033714;28;20391;-62
2023/01/03 07:38:27;;;;;;;;;;;12.00;1.00;;;;;;5023078;28;20129;-61
2023/01/03 07:41:00;;;;;;;13.75;10.23;;;12.10;1.00;;;;;;5032969;28;19957;-61
2023/01/03 07:43:35;;;;;;;12.23;9.73;;;12.10;1.00;;;;;;5033494;28;20032;-61
2023/01/03 07:46:13;;;;;;;14.40;10.52;;;12.10;1.00;;;;;;5033100;28;20033;-61
2023/01/03 07:48:39;;;;;;;17.42;11.45;;;12.10;1.00;;;;;;5031643;28;20033;-61
2023/01/03 07:51:06;;;;;;;12.30;9.55;;;12.10;1.00;;;;;;5032804;28;20099;-61
2023/01/03 07:53:32;;;;;;;20.15;11.52;;;12.10;1.00;;;;;;5033247;28;20072;-62
2023/01/03 07:56:14;;;;;;;15.50;10.40;;;12.20;1.00;;;;;;5031994;28;20029;-62
2023/01/03 07:58:42;;;;;;;16.23;9.65;;;12.20;1.00;;;;;;5024861;28;20120;-62
2023/01/03 08:01:13;;;;;;;15.13;9.65;;;12.10;1.00;;;;;;5032702;28;20021;-62
2023/01/03 08:03:39;;;;;;;18.45;10.55;;;12.00;1.00;;;;;;5030985;28;20117;-62
2023/01/03 08:06:17;;;;;;;17.02;9.68;;;12.00;1.00;;;;;;5030905;28;20030;-62
2023/01/03 08:08:44;;;;;;;20.70;11.23;;;12.00;1.00;;;;;;5030970;28;20029;-61
2023/01/03 08:13:57;;;;;;;15.95;11.20;;;12.00;1.00;;;;;;5028877;28;20047;-61
2023/01/03 08:16:24;;;;;;;18.48;11.07;;;12.00;1.00;;;;;;5031976;28;20398;-62
2023/01/03 08:18:50;;;;;;;14.88;9.43;;;12.00;1.00;;;;;;5027088;28;20033;-62
2023/01/03 08:21:16;;;;;;;16.20;8.63;;;12.00;1.00;;;;;;5026591;28;20029;-62
2023/01/03 08:23:42;;;;;;;14.15;8.65;;;11.90;1.00;;;;;;5014320;28;20039;-62
2023/01/03 08:26:15;;;;;;;16.60;10.55;;;11.90;1.00;;;;;;5032434;28;20517;-62
2023/01/03 08:28:43;;;;;;;10.27;8.27;;;12.00;1.50;;;;;;5031831;28;20048;-62
2023/01/03 08:31:16;;;;;;;13.70;9.15;;;11.90;99.90;;;;;;5028937;28;20452;-62
2023/01/03 08:33:58;;;;;;;18.43;11.10;;;11.90;99.90;;;;;;5025376;28;20029;-62
2023/01/03 08:36:27;;;;;;;18.73;11.27;;;12.00;99.90;;;;;;5027304;28;20880;-62
2023/01/03 08:39:01;;;;;;;18.98;10.55;;;11.90;99.90;;;;;;5030342;28;20037;-62
2023/01/03 08:41:30;;;;;;;16.38;10.27;;;11.80;99.90;;;;;;5032706;28;20022;-62
2023/01/03 08:44:01;;;;;;;18.27;11.43;;;11.90;99.90;;;;;;5032430;28;20395;-62
2023/01/03 08:46:29;;;;;;;19.60;11.88;;;11.80;99.90;;;;;;5031305;28;20569;-62
2023/01/03 08:48:55;;;;;;;20.63;11.90;;;12.00;99.90;;;;;;5029866;28;20026;-61
2023/01/03 08:55:03;;;;;;;17.63;10.38;;;12.00;99.90;;;;;;5024136;28;20171;-61
2023/01/03 08:57:29;;;;;;;15.80;9.32;;;11.90;99.90;;;;;;5030054;28;20028;-62
2023/01/03 08:59:54;;;;;;;13.05;8.50;;;12.00;99.90;;;;;;5032149;28;20100;-62
2023/01/03 09:02:20;;;;;;;11.98;8.10;;;12.00;99.90;;;;;;5032256;28;20108;-62
2023/01/03 09:04:46;;;;;;;15.75;8.43;;;12.10;99.90;;;;;;5031717;28;20405;-62
2023/01/03 09:07:12;;;;;;;15.32;9.43;;;12.00;99.90;;;;;;5026316;28;20472;-62
2023/01/03 09:09:37;;;;;;;14.27;10.30;;;12.00;99.90;;;;;;5027771;28;20029;-62
2023/01/03 09:12:03;;;;;;;11.80;9.13;;;12.00;99.90;;;;;;5023463;28;20383;-62
2023/01/03 09:14:33;;;;;;;14.18;9.27;;;11.90;99.90;;;;;;5024942;28;20089;-61
2023/01/03 09:16:58;;;;;;;15.75;10.13;;;12.00;99.90;;;;;;5027395;28;20033;-62
2023/01/03 09:19:24;;;;;;;12.23;9.30;;;11.90;99.90;;;;;;5026044;28;20406;-61
2023/01/03 09:21:49;;;;;;;14.55;9.55;;;12.00;99.90;;;;;;5027174;28;20143;-60
2023/01/03 09:24:15;;;;;;;15.40;9.60;;;12.00;99.90;;;;;;5026591;28;20041;-61
2023/01/03 09:26:41;;;;;;;17.55;10.95;;;12.00;99.90;;;;;;5021252;28;20040;-61
2023/01/03 09:29:06;;;;;;;10.82;8.32;;;12.10;99.90;;;;;;5025363;28;20030;-61
2023/01/03 09:31:33;;;;;;;16.50;11.45;;;12.10;99.90;;;;;;5025027;28;20025;-61
2023/01/03 09:34:02;;;;;;;14.80;8.85;;;12.10;99.90;;;;;;5024262;28;20041;-61
2023/01/03 09:36:28;;;;;;;13.98;9.73;;;12.10;99.90;;;;;;5023851;28;20021;-60
2023/01/03 09:38:54;;;;;;;12.80;9.93;;;12.10;99.90;;;;;;5024918;28;20035;-61
2023/01/03 09:41:25;;;;;;;16.25;10.15;;;12.10;99.90;;;;;;5023089;28;20036;-61
2023/01/03 09:43:57;;;;;;;17.60;9.80;;;12.20;99.90;;;;;;5023584;28;20041;-61
2023/01/03 09:46:25;;;;;;;13.15;10.23;;;12.20;99.90;;;;;;5020368;28;20067;-61
2023/01/03 09:48:53;;;;;;;14.38;10.65;;;12.20;99.90;;;;;;5026241;28;20033;-61
2023/01/03 10:03:42;;;;;;;20.13;14.52;;;12.20;99.90;;;;;;5021736;28;20068;-60
2023/01/03 10:06:39;;;;;;;25.70;17.40;;;12.20;99.90;;;;;;5025739;28;20434;-60
2023/01/03 10:09:14;;;;;;;23.55;16.73;;;12.20;99.90;;;;;;5023902;28;20029;-60
2023/01/03 10:11:49;;;;;;;18.58;15.43;;;12.30;99.90;;;;;;5024020;28;20030;-61
2023/01/03 10:14:32;;;;;;;24.30;17.27;;;12.30;99.90;;;;;;5039242;28;20034;-61
2023/01/03 10:17:11;;;;;;;21.90;16.50;;;12.30;99.90;;;;;;5023486;28;20107;-61
2023/01/03 10:19:45;;;;;;;24.48;17.92;;;12.30;99.90;;;;;;5025056;28;20388;-61
2023/01/03 10:22:19;;;;;;;24.25;16.38;;;12.30;99.90;;;;;;5024780;28;20031;-61
2023/01/03 10:24:55;;;;;;;25.33;17.48;;;12.30;99.90;;;;;;5027996;28;20041;-61
2023/01/03 10:27:24;;;;;;;32.55;20.48;;;12.30;99.90;;;;;;5029782;28;20026;-60
2023/01/03 10:29:59;;;;;;;30.08;19.55;;;12.40;99.90;;;;;;5029972;28;20030;-60
2023/01/03 10:32:37;;;;;;;26.58;17.92;;;12.30;99.90;;;;;;5031200;28;20053;-61
2023/01/03 10:35:27;;;;;;;30.60;18.40;;;12.30;99.90;;;;;;5029529;28;20134;-61
2023/01/03 10:37:54;;;;;;;25.85;17.10;;;12.30;99.90;;;;;;5030823;28;20038;-61
2023/01/03 10:40:43;;;;;;;27.83;17.27;;;12.30;99.90;;;;;;5029375;28;20032;-61
2023/01/03 10:43:16;;;;;;;31.10;18.33;;;12.30;99.90;;;;;;5030314;28;20117;-61
2023/01/03 10:46:00;;;;;;;40.67;20.17;;;12.30;99.90;;;;;;5018673;28;20044;-61
2023/01/03 10:48:45;;;;;;;42.23;21.90;;;12.20;99.90;;;;;;5018055;28;20033;-61
2023/01/03 10:51:49;;;;;;;36.72;21.02;;;12.20;99.90;;;;;;5029055;28;20032;-61
2023/01/03 10:54:17;;;;;;;32.28;20.05;;;12.20;72.00;;;;;;5032454;28;20411;-61
2023/01/03 10:56:44;;;;;;;31.27;20.73;;;12.30;47.80;;;;;;5032292;28;20033;-61
2023/01/03 10:59:28;;;;;;;31.90;19.65;;;12.20;30.80;;;;;;5034621;28;20028;-61
2023/01/03 11:01:58;;;;;;;26.50;16.30;;;12.20;24.70;;;;;;5031136;28;20029;-61
2023/01/03 11:04:25;;;;;;;30.63;19.38;;;12.30;15.80;;;;;;5034333;28;20041;-61
2023/01/03 11:07:11;;;;;;;19.67;14.52;;;12.30;7.40;;;;;;5032720;28;20120;-61
2023/01/03 11:09:50;;;;;;;31.33;17.30;;;12.20;6.70;;;;;;5025953;28;20074;-61
2023/01/03 11:12:48;;;;;;;37.85;20.67;;;12.30;5.50;;;;;;5033509;28;20048;-61
2023/01/03 11:15:34;;;;;;;38.67;19.73;;;12.30;6.20;;;;;;5030486;28;20034;-61
2023/01/03 11:18:21;;;;;;;33.10;16.92;;;12.30;26.80;;;;;;5034506;28;20045;-61
2023/01/03 11:20:58;;;;;;;27.27;16.80;;;12.40;27.30;;;;;;5030737;28;20021;-61
2023/01/03 11:23:29;;;;;;;30.98;16.70;;;12.30;99.90;;;;;;5034179;28;20132;-61
2023/01/03 11:26:01;;;;;;;33.13;16.20;;;12.40;99.90;;;;;;5026825;28;20041;-61
2023/01/03 11:29:14;;;;;;;32.83;16.63;;;12.40;99.90;;;;;;5033956;28;20025;-61
2023/01/03 11:32:09;;;;;;;41.63;18.58;;;12.40;99.90;;;;;;5008178;28;20041;-61
2023/01/03 11:35:01;;;;;;;42.40;19.65;;;12.40;99.90;;;;;;5018073;28;20018;-61
2023/01/03 11:38:05;;;;;;;48.10;22.10;;;12.40;99.90;;;;;;5029925;28;20116;-61
2023/01/03 11:40:46;;;;;;;44.10;21.75;;;12.40;99.90;;;;;;5031748;28;20037;-61
2023/01/03 11:43:35;;;;;;;51.47;23.73;;;12.50;63.00;;;;;;5032576;28;20231;-62
2023/01/03 11:46:34;;;;;;;32.53;18.50;;;12.60;38.90;;;;;;5031383;28;20049;-61
2023/01/03 11:49:14;;;;;;;33.17;19.63;;;12.50;26.10;;;;;;5033355;28;20041;-61
2023/01/03 11:52:07;;;;;;;39.30;21.00;;;12.60;17.60;;;;;;5033975;28;20029;-61
2023/01/03 11:55:02;;;;;;;33.22;19.60;;;12.60;11.80;;;;;;5029260;28;20123;-61
2023/01/03 11:57:39;;;;;;;33.50;18.58;;;12.70;6.40;;;;;;5032117;28;20144;-61
2023/01/03 12:00:11;;;;;;;40.38;21.02;;;12.70;1.00;;;;;;5031640;28;20475;-61
2023/01/03 12:03:03;;;;;;;41.10;22.77;;;12.70;1.00;;;;;;5033605;28;20038;-61
2023/01/03 12:05:31;;;;;;;43.08;21.50;;;12.70;1.00;;;;;;5031114;28;20042;-61
2023/01/03 12:08:03;;;;;;;37.75;20.38;;;12.70;1.00;;;;;;5033074;28;20041;-61
2023/01/03 12:10:44;;;;;;;35.83;20.38;;;12.60;1.00;;;;;;5031939;28;20025;-61
2023/01/03 12:13:48;;;;;;;51.28;23.58;;;12.70;1.00;;;;;;5026790;28;20029;-61
2023/01/03 12:16:24;;;;;;;50.92;22.75;;;12.80;1.00;;;;;;5032767;28;20116;-61
2023/01/03 12:19:42;;;;;;;44.25;21.27;;;12.80;1.00;;;;;;5021846;28;20392;-61
2023/01/03 12:22:33;;;;;;;37.33;18.10;;;12.80;1.00;;;;;;5010879;28;20064;-61
2023/01/03 12:25:08;;;;;;;46.50;21.35;;;12.70;1.00;;;;;;5030355;28;20045;-61
2023/01/03 12:27:35;;;;;;;;;;;12.70;1.00;;;;;;5033443;28;20017;-62
2023/01/03 12:30:07;;;;;;;33.78;18.90;;;12.70;1.00;;;;;;5047618;28;20298;-61
2023/01/03 12:33:01;;;;;;;37.20;19.38;;;12.70;1.00;;;;;;5032734;28;20028;-61
2023/01/03 12:35:37;;;;;;;34.20;18.33;;;12.60;1.00;;;;;;5027478;28;20103;-61
2023/01/03 12:38:05;;;;;;;44.92;22.10;;;12.50;15.20;;;;;;5031185;28;20026;-61
2023/01/03 12:40:56;;;;;;;37.85;20.45;;;12.50;18.20;;;;;;5032713;28;20079;-60
2023/01/03 12:43:54;;;;;;;50.25;23.35;;;12.30;99.90;;;;;;5031487;28;20391;-61
2023/01/03 12:46:27;;;;;;;48.22;23.45;;;12.40;99.90;;;;;;5020308;28;20076;-61
2023/01/03 12:49:03;;;;;;;46.80;22.67;;;12.50;99.90;;;;;;5025058;28;20526;-61
2023/01/03 12:51:29;;;;;;;50.95;24.55;;;12.50;99.90;;;;;;5027290;28;20045;-61
2023/01/03 12:54:00;;;;;;;47.22;24.25;;;12.50;99.90;;;;;;5028842;28;20036;-61
2023/01/03 12:56:38;;;;;;;46.35;24.60;;;12.60;99.90;;;;;;5026824;28;20047;-61
2023/01/03 12:59:52;;;;;;;48.30;24.55;;;12.60;99.90;;;;;;5031921;28;20551;-61
2023/01/03 13:02:23;;;;;;;45.65;23.35;;;12.40;99.90;;;;;;5033844;28;20068;-61
2023/01/03 13:04:55;;;;;;;40.45;22.90;;;12.50;99.90;;;;;;5030893;28;20049;-61
2023/01/03 13:07:26;;;;;;;34.58;20.92;;;12.40;99.90;;;;;;5018510;28;20048;-61
2023/01/03 13:10:03;;;;;;;41.92;23.58;;;12.50;99.90;;;;;;5022054;28;20026;-61
2023/01/03 13:12:35;;;;;;;39.90;24.30;;;12.50;99.90;;;;;;5030737;28;20111;-61
2023/01/03 13:15:04;;;;;;;35.95;21.05;;;12.50;99.90;;;;;;5032287;28;20025;-61
2023/01/03 13:17:40;;;;;;;43.35;23.50;;;12.50;99.90;;;;;;5031193;28;20036;-61
2023/01/03 13:20:33;;;;;;;40.78;25.20;;;12.50;99.90;;;;;;5031898;28;20401;-61
2023/01/03 13:22:59;;;;;;;41.85;23.95;;;12.50;99.90;;;;;;5032071;28;20032;-60
2023/01/03 13:25:38;;;;;;;39.17;22.58;;;12.50;99.90;;;;;;5015455;28;20042;-61
2023/01/03 13:28:17;;;;;;;36.75;21.48;;;12.50;99.90;;;;;;5031750;28;20162;-61
2023/01/03 13:30:43;;;;;;;38.50;21.58;;;12.40;99.90;;;;;;5031710;28;20420;-61
2023/01/03 13:33:12;;;;;;;40.15;22.30;;;12.40;99.90;;;;;;5031635;28;20024;-61
2023/01/03 13:35:43;;;;;;;35.05;22.25;;;12.40;99.90;;;;;;5017681;28;20038;-61
2023/01/03 13:38:30;;;;;;;41.75;23.80;;;12.50;99.90;;;;;;5032095;28;20022;-61
2023/01/03 13:41:08;;;;;;;33.58;20.52;;;12.50;99.90;;;;;;5028567;28;20048;-61
2023/01/03 13:43:35;;;;;;;37.38;21.30;;;12.50;99.90;;;;;;5023835;28;20379;-61
2023/01/03 13:46:17;;;;;;;41.47;23.60;;;12.60;99.90;;;;;;5028373;28;20037;-61
2023/01/03 13:48:54;;;;;;;36.03;22.13;;;12.70;99.90;;;;;;5031878;28;20038;-61
2023/01/03 13:51:51;;;;;;;31.83;21.25;;;12.80;99.90;;;;;;5018996;28;20380;-61
2023/01/03 13:54:16;;;;;;;34.70;22.52;;;12.70;99.90;;;;;;5031083;28;20037;-61
2023/01/03 13:56:42;;;;;;;33.20;22.27;;;12.80;99.90;;;;;;5019649;28;20022;-61
2023/01/03 13:59:14;;;;;;;30.10;21.42;;;12.70;99.90;;;;;;5029797;28;20109;-61
2023/01/03 14:01:58;;;;;;;29.42;20.88;;;12.80;99.90;;;;;;5018524;28;20032;-61
2023/01/03 14:04:41;;;;;;;33.97;20.95;;;12.80;99.90;;;;;;5024755;28;20152;-62
2023/01/03 14:07:45;;;;;;;37.67;24.40;;;12.80;99.90;;;;;;5019861;28;20045;-61
2023/01/03 14:10:30;;;;;;;35.80;22.02;;;12.90;99.90;;;;;;5016800;28;20030;-61
2023/01/03 14:13:07;;;;;;;39.83;25.05;;;12.80;99.90;;;;;;5028378;28;20033;-61
2023/01/03 14:15:34;;;;;;;44.80;25.60;;;12.90;99.90;;;;;;5031397;28;20039;-61
2023/01/03 14:18:24;;;;;;;34.72;22.45;;;12.90;99.90;;;;;;5027079;28;20467;-61